Time;durP1;ratioP1;P1;durP2;ratioP2;P2;SDS_P1;SDS_P2;PMS_P1;PMS_P2;Temp;Humidity;BMP_temperature;BMP_pressure;BME280_temperature;BME280_humidity;BME280_pressure;Samples;Min_cycle;Max_cycle;Signal;HPM_P1;HPM_P2
2020/12/30 00:01:25;;;;;;;1.40;0.98;;;;;;;17.10;48.39;99524.69;5105170;28;20023;-70
2020/12/30 00:03:51;;;;;;;2.45;1.25;;;;;;;17.09;48.15;99523.84;5088139;28;20492;-69
2020/12/30 00:06:17;;;;;;;1.35;1.00;;;;;;;17.11;48.49;99526.44;5080425;28;20524;-69
2020/12/30 00:08:44;;;;;;;1.17;0.80;;;;;;;17.10;48.00;99522.09;5088655;28;20031;-69
2020/12/30 00:11:09;;;;;;;1.10;0.85;;;;;;;17.07;48.14;99515.16;5087956;28;20110;-70
2020/12/30 00:13:35;;;;;;;1.83;0.88;;;;;;;17.09;48.49;99529.06;5081465;28;21959;-69
2020/12/30 00:16:00;;;;;;;1.50;0.90;;;;;;;17.07;48.27;99516.91;5114655;28;20035;-69
2020/12/30 00:18:25;;;;;;;1.63;1.00;;;;;;;17.08;48.43;99531.72;5060209;28;20039;-70
2020/12/30 00:20:51;;;;;;;1.60;0.95;;;;;;;17.07;48.27;99540.44;5100654;28;20031;-70
2020/12/30 00:23:16;;;;;;;1.58;0.95;;;;;;;17.08;48.12;99542.16;5111748;28;20023;-69
2020/12/30 00:25:41;;;;;;;1.70;1.10;;;;;;;17.06;48.33;99546.53;5092886;28;20447;-69
2020/12/30 00:28:07;;;;;;;1.60;0.80;;;;;;;17.05;48.33;99545.69;5080371;28;20028;-70
2020/12/30 00:30:32;;;;;;;1.60;1.02;;;;;;;17.07;48.20;99556.97;5072829;28;20378;-69
2020/12/30 00:32:57;;;;;;;1.33;0.93;;;;;;;17.05;48.28;99544.81;5076449;28;20032;-69
2020/12/30 00:35:23;;;;;;;2.35;0.88;;;;;;;17.08;48.08;99556.06;5067396;28;20076;-69
2020/12/30 00:37:48;;;;;;;1.48;1.00;;;;;;;17.07;48.22;99550.88;5109014;28;20062;-69
2020/12/30 00:40:13;;;;;;;1.17;0.70;;;;;;;17.07;48.32;99559.56;5096159;28;20480;-69
2020/12/30 00:42:40;;;;;;;1.17;0.90;;;;;;;17.03;48.08;99537.00;5111700;28;20038;-69
2020/12/30 00:45:08;;;;;;;0.75;0.68;;;;;;;17.03;48.47;99536.16;5102654;28;20027;-69
2020/12/30 00:47:33;;;;;;;1.45;1.08;;;;;;;17.04;47.98;99554.41;5094987;28;20032;-69
2020/12/30 00:49:59;;;;;;;1.60;1.17;;;;;;;16.99;48.29;99537.13;5093777;28;20042;-69
2020/12/30 00:52:26;;;;;;;1.85;0.98;;;;;;;17.02;48.01;99542.25;5095324;28;20047;-69
2020/12/30 00:54:51;;;;;;;3.00;1.50;;;;;;;17.01;48.18;99546.63;5078019;28;20063;-70
2020/12/30 00:57:17;;;;;;;1.00;0.60;;;;;;;17.04;48.62;99553.53;5076915;28;20471;-69
2020/12/30 00:59:42;;;;;;;1.52;1.00;;;;;;;17.02;48.01;99556.19;5072815;28;20501;-70
2020/12/30 01:02:07;;;;;;;1.35;1.00;;;;;;;17.05;48.62;99565.72;5090359;28;20728;-69
2020/12/30 01:04:33;;;;;;;1.13;0.90;;;;;;;17.16;48.07;99563.75;5089370;28;20020;-69
2020/12/30 01:06:58;;;;;;;1.30;0.82;;;;;;;17.27;48.07;99563.53;5110712;28;20099;-70
2020/12/30 01:09:25;;;;;;;1.85;0.80;;;;;;;17.30;47.64;99574.78;5111670;28;20470;-70
2020/12/30 01:11:51;;;;;;;1.88;0.70;;;;;;;17.30;47.72;99584.38;5107975;28;20533;-69
2020/12/30 01:14:17;;;;;;;1.52;0.93;;;;;;;17.34;47.70;99581.69;5106583;28;20099;-69
2020/12/30 01:16:53;;;;;;;1.23;0.90;;;;;;;17.45;47.01;99591.91;5095339;28;20031;-69
2020/12/30 01:19:19;;;;;;;1.65;1.00;;;;;;;17.43;47.61;99605.00;5078740;28;20450;-70
2020/12/30 01:21:45;;;;;;;1.35;0.90;;;;;;;17.41;47.55;99603.31;5106925;28;20106;-69
2020/12/30 01:24:11;;;;;;;0.98;0.70;;;;;;;17.50;47.38;99617.06;5110147;28;20111;-69
2020/12/30 01:26:40;;;;;;;1.65;1.10;;;;;;;17.56;47.45;99613.47;5108578;28;20103;-70
2020/12/30 01:29:06;;;;;;;1.90;1.17;;;;;;;17.50;47.57;99611.84;5083539;28;20055;-69
2020/12/30 01:31:32;;;;;;;1.08;0.80;;;;;;;17.50;47.77;99609.22;5111844;28;20064;-69
2020/12/30 01:33:59;;;;;;;0.93;0.70;;;;;;;17.59;47.47;99602.94;5087303;28;20078;-70
2020/12/30 01:36:25;;;;;;;0.70;0.50;;;;;;;17.58;46.96;99597.75;5082906;28;20765;-69
2020/12/30 01:38:52;;;;;;;1.23;0.80;;;;;;;17.57;47.26;99606.47;5084159;28;20059;-69
2020/12/30 01:41:17;;;;;;;1.38;0.73;;;;;;;17.59;47.42;99595.09;5091914;28;20054;-77
2020/12/30 01:44:05;;;;;;;1.15;0.70;;;;;;;17.68;47.34;99607.13;5089558;28;20036;-77
2020/12/30 01:46:43;;;;;;;0.50;0.40;;;;;;;17.63;46.96;99614.22;5091794;28;20028;-76
2020/12/30 01:49:13;;;;;;;0.68;0.57;;;;;;;17.59;47.56;99615.16;5074756;28;20039;-76
2020/12/30 01:51:41;;;;;;;0.98;0.80;;;;;;;17.69;47.25;99619.31;5092413;28;20030;-76
2020/12/30 01:54:14;;;;;;;0.82;0.70;;;;;;;17.65;47.27;99612.47;5086266;28;20071;-76
2020/12/30 01:56:40;;;;;;;1.20;0.82;;;;;;;17.63;47.46;99619.44;5089101;28;20113;-76
2020/12/30 01:59:09;;;;;;;1.13;0.68;;;;;;;17.67;47.40;99611.50;5091704;28;20048;-77
2020/12/30 02:01:38;;;;;;;1.13;0.70;;;;;;;17.72;47.61;99616.66;5091388;28;20082;-76
2020/12/30 02:04:09;;;;;;;0.65;0.50;;;;;;;17.65;47.42;99617.69;5087273;28;20048;-76
2020/12/30 02:06:35;;;;;;;1.42;0.63;;;;;;;17.66;47.42;99619.38;5086722;28;20016;-76
2020/12/30 02:09:03;;;;;;;0.55;0.40;;;;;;;17.73;47.43;99624.47;5077411;28;20086;-76
2020/12/30 02:11:29;;;;;;;0.88;0.63;;;;;;;17.71;47.10;99621.03;5088929;28;20077;-76
2020/12/30 02:14:01;;;;;;;0.68;0.50;;;;;;;17.68;47.30;99633.28;5092083;28;20024;-76
2020/12/30 02:16:27;;;;;;;0.77;0.55;;;;;;;17.62;47.77;99633.41;5092069;28;20106;-77
2020/12/30 02:18:53;;;;;;;0.70;0.50;;;;;;;17.57;47.70;99630.00;5105181;28;20060;-77
2020/12/30 02:21:18;;;;;;;0.82;0.77;;;;;;;17.52;47.55;99630.13;5086796;28;20438;-76
2020/12/30 02:23:45;;;;;;;1.75;0.55;;;;;;;17.48;47.91;99631.91;5087502;28;20020;-77
2020/12/30 02:26:10;;;;;;;1.67;0.50;;;;;;;17.48;47.89;99634.53;5091091;28;20044;-77
2020/12/30 02:28:36;;;;;;;1.23;0.90;;;;;;;17.43;47.98;99625.03;5096978;28;20115;-68
2020/12/30 02:31:02;;;;;;;0.82;0.60;;;;;;;17.41;48.02;99638.16;5093205;28;20035;-70
2020/12/30 02:33:27;;;;;;;0.68;0.55;;;;;;;17.43;47.75;99645.97;5096692;28;20081;-68
2020/12/30 02:35:52;;;;;;;0.50;0.40;;;;;;;17.39;47.84;99647.78;5091956;28;20123;-71
2020/12/30 02:38:22;;;;;;;0.50;0.50;;;;;;;17.37;47.93;99651.31;5114412;28;20110;-71
2020/12/30 02:40:48;;;;;;;0.98;0.43;;;;;;;17.31;48.15;99651.41;5116060;28;20484;-69
2020/12/30 02:43:15;;;;;;;1.05;0.57;;;;;;;17.36;48.22;99657.44;5114611;28;20036;-69
2020/12/30 02:45:40;;;;;;;0.70;0.50;;;;;;;17.32;48.26;99647.91;5101408;28;20031;-71
2020/12/30 02:48:05;;;;;;;0.55;0.47;;;;;;;17.32;47.97;99656.63;5076116;28;20148;-69
2020/12/30 02:50:31;;;;;;;0.70;0.55;;;;;;;17.30;48.07;99653.16;5115164;28;20039;-69
2020/12/30 02:52:56;;;;;;;0.80;0.60;;;;;;;17.31;48.09;99652.28;5096757;28;20031;-69
2020/12/30 02:55:21;;;;;;;0.95;0.60;;;;;;;17.30;48.40;99654.91;5092819;28;20118;-71
2020/12/30 02:57:47;;;;;;;1.05;0.63;;;;;;;17.28;48.37;99654.94;5094523;28;20032;-69
2020/12/30 03:00:12;;;;;;;0.68;0.45;;;;;;;17.27;48.19;99652.34;5067926;28;20027;-71
2020/12/30 03:02:37;;;;;;;0.80;0.50;;;;;;;17.29;48.05;99650.59;5076823;28;20118;-69
2020/12/30 03:05:03;;;;;;;0.93;0.50;;;;;;;17.25;48.50;99649.81;5086498;28;20036;-71
2020/12/30 03:07:28;;;;;;;0.70;0.43;;;;;;;17.25;48.19;99652.41;5077488;28;20046;-71
2020/12/30 03:09:53;;;;;;;0.57;0.40;;;;;;;17.25;48.37;99648.94;5081507;28;20427;-69
2020/12/30 03:12:19;;;;;;;1.20;0.82;;;;;;;17.22;48.19;99643.75;5114119;28;20039;-69
2020/12/30 03:14:44;;;;;;;0.50;0.40;;;;;;;17.18;48.18;99642.94;5091458;28;20453;-69
2020/12/30 03:17:09;;;;;;;0.93;0.70;;;;;;;17.21;48.16;99645.50;5084586;28;20039;-71
2020/12/30 03:19:35;;;;;;;1.35;0.40;;;;;;;17.19;48.46;99647.28;5091685;28;20039;-70
2020/12/30 03:22:00;;;;;;;0.40;0.35;;;;;;;17.21;48.44;99649.88;5078058;28;20028;-70
2020/12/30 03:24:26;;;;;;;0.70;0.50;;;;;;;17.22;48.23;99656.81;5113407;28;20123;-69
2020/12/30 03:26:51;;;;;;;1.17;0.60;;;;;;;17.19;48.13;99657.75;5075369;28;20040;-71
2020/12/30 03:29:17;;;;;;;0.68;0.50;;;;;;;17.13;48.23;99650.91;5095833;28;20023;-70
2020/12/30 03:31:42;;;;;;;0.40;0.40;;;;;;;17.20;48.03;99661.22;5072736;28;20032;-69
2020/12/30 03:34:11;;;;;;;0.60;0.40;;;;;;;17.17;47.92;99656.03;5102492;28;20501;-69
2020/12/30 03:36:37;;;;;;;0.90;0.73;;;;;;;17.14;48.08;99649.13;5113081;28;20063;-69
2020/12/30 03:39:03;;;;;;;1.95;0.45;;;;;;;17.14;48.02;99649.97;5085222;28;20066;-69
2020/12/30 03:41:28;;;;;;;0.93;0.50;;;;;;;17.14;48.16;99649.13;5113569;28;20024;-70
2020/12/30 03:43:54;;;;;;;0.40;0.40;;;;;;;17.12;48.30;99646.56;5094329;28;20020;-71
2020/12/30 03:46:19;;;;;;;0.38;0.35;;;;;;;17.12;48.36;99646.56;5063184;28;20039;-69
2020/12/30 03:48:45;;;;;;;0.60;0.50;;;;;;;17.14;47.97;99649.13;5093717;28;20477;-71
2020/12/30 03:51:10;;;;;;;0.65;0.50;;;;;;;17.11;48.16;99644.84;5098255;28;20039;-70
2020/12/30 03:53:35;;;;;;;0.60;0.45;;;;;;;17.13;48.11;99647.41;5100627;28;20031;-69
2020/12/30 03:56:01;;;;;;;0.30;0.30;;;;;;;17.12;48.09;99650.91;5107212;28;20027;-71
2020/12/30 03:58:26;;;;;;;0.90;0.50;;;;;;;17.14;48.14;99651.72;5091024;28;20030;-71
2020/12/30 04:00:52;;;;;;;0.40;0.38;;;;;;;17.11;48.18;99647.44;5105368;28;20028;-71
2020/12/30 04:03:17;;;;;;;0.77;0.60;;;;;;;17.08;48.16;99642.25;5076071;28;20036;-71
2020/12/30 04:05:42;;;;;;;0.77;0.55;;;;;;;17.11;48.12;99649.19;5087523;28;20103;-71
2020/12/30 04:08:07;;;;;;;1.20;0.70;;;;;;;17.09;48.17;99640.50;5078034;28;20055;-71
2020/12/30 04:10:33;;;;;;;0.88;0.60;;;;;;;17.08;48.26;99641.41;5106569;28;20058;-69
2020/12/30 04:12:58;;;;;;;0.28;0.28;;;;;;;17.10;48.17;99639.63;5097069;28;20032;-69
2020/12/30 04:15:24;;;;;;;0.82;0.38;;;;;;;17.05;48.38;99644.94;5110770;28;20036;-69
2020/12/30 04:17:49;;;;;;;0.77;0.65;;;;;;;17.10;48.12;99652.69;5099850;28;20023;-69
2020/12/30 04:20:14;;;;;;;0.40;0.40;;;;;;;17.09;48.18;99650.97;5075594;28;20036;-69
2020/12/30 04:22:40;;;;;;;0.77;0.70;;;;;;;17.08;48.10;99652.72;5110579;28;20030;-69
2020/12/30 04:25:05;;;;;;;0.52;0.35;;;;;;;17.05;48.15;99655.38;5112640;28;20097;-69
2020/12/30 04:27:30;;;;;;;0.52;0.28;;;;;;;17.08;48.30;99659.69;5088919;28;20093;-69
2020/12/30 04:29:56;;;;;;;0.60;0.40;;;;;;;17.07;48.60;99661.44;5086200;28;20043;-69
2020/12/30 04:32:21;;;;;;;0.65;0.30;;;;;;;17.07;48.31;99658.81;5061684;28;20070;-69
2020/12/30 04:34:46;;;;;;;0.68;0.40;;;;;;;17.04;48.46;99660.63;5099132;28;20057;-69
2020/12/30 04:37:13;;;;;;;0.35;0.30;;;;;;;17.05;48.20;99657.13;5101017;28;20051;-69
2020/12/30 04:39:38;;;;;;;0.57;0.30;;;;;;;17.07;48.46;99660.56;5093787;28;20428;-69
2020/12/30 04:42:04;;;;;;;0.93;0.50;;;;;;;17.16;47.92;99665.63;5107810;28;20024;-69
2020/12/30 04:44:34;;;;;;;0.70;0.50;;;;;;;17.29;47.80;99669.72;5069317;28;20028;-69
2020/12/30 04:47:02;;;;;;;0.47;0.43;;;;;;;17.29;47.78;99669.72;5098926;28;20035;-69
2020/12/30 04:49:28;;;;;;;1.00;0.50;;;;;;;17.31;47.51;99672.31;5104968;28;20034;-76
2020/12/30 04:51:55;;;;;;;0.93;0.40;;;;;;;17.39;47.93;99668.69;5079711;28;20023;-76
2020/12/30 04:54:21;;;;;;;0.80;0.50;;;;;;;17.49;47.37;99679.81;5096428;28;20103;-76
2020/12/30 04:56:59;;;;;;;0.30;0.30;;;;;;;17.45;47.42;99673.78;5091485;28;20057;-76
2020/12/30 04:59:33;;;;;;;0.63;0.55;;;;;;;17.45;47.43;99675.53;5080599;28;20421;-76
2020/12/30 05:02:03;;;;;;;0.85;0.35;;;;;;;17.58;47.63;99679.63;5107826;28;20054;-78
2020/12/30 05:04:30;;;;;;;0.50;0.35;;;;;;;17.59;47.09;99685.72;5084498;28;20036;-76
2020/12/30 05:07:00;;;;;;;0.63;0.50;;;;;;;17.52;47.60;99681.53;5076055;28;20062;-78
2020/12/30 05:09:26;;;;;;;1.15;0.63;;;;;;;17.55;47.56;99679.69;5106971;28;20024;-78
2020/12/30 05:11:51;;;;;;;0.77;0.40;;;;;;;17.60;47.52;99675.25;5096601;28;20056;-77
2020/12/30 05:14:17;;;;;;;0.52;0.40;;;;;;;17.62;47.30;99686.53;5079047;28;20070;-76
2020/12/30 05:16:42;;;;;;;0.60;0.30;;;;;;;17.56;47.46;99689.25;5078901;28;20039;-69
2020/12/30 05:19:08;;;;;;;0.57;0.38;;;;;;;17.62;47.43;99690.91;5090846;28;20024;-69
2020/12/30 05:21:33;;;;;;;0.60;0.40;;;;;;;17.66;47.38;99685.59;5091122;28;20335;-69
2020/12/30 05:23:58;;;;;;;0.40;0.30;;;;;;;17.63;47.31;99690.91;5099332;28;20398;-69
2020/12/30 05:26:24;;;;;;;0.45;0.30;;;;;;;17.58;47.60;99691.84;5100776;28;20031;-68
2020/12/30 05:28:52;;;;;;;0.38;0.38;;;;;;;17.69;47.33;99700.38;5094988;28;20046;-68
2020/12/30 05:31:17;;;;;;;1.10;0.65;;;;;;;17.67;47.44;99689.94;5112821;28;20538;-69
2020/12/30 05:33:43;;;;;;;0.47;0.30;;;;;;;17.63;47.62;99692.63;5073795;28;20060;-69
2020/12/30 05:36:08;;;;;;;0.30;0.30;;;;;;;17.65;47.40;99693.50;5083180;28;20107;-69
2020/12/30 05:38:33;;;;;;;0.50;0.38;;;;;;;17.70;47.11;99691.63;5090239;28;20101;-68
2020/12/30 05:40:59;;;;;;;0.40;0.40;;;;;;;17.69;47.23;99706.47;5093517;28;20039;-69
2020/12/30 05:43:27;;;;;;;0.70;0.30;;;;;;;17.67;47.37;99710.00;5094052;28;20039;-76
2020/12/30 05:45:54;;;;;;;0.63;0.40;;;;;;;17.75;47.24;99722.03;5093928;28;20073;-76
2020/12/30 05:48:21;;;;;;;0.43;0.40;;;;;;;17.74;47.50;99716.84;5092328;28;20038;-76
2020/12/30 05:50:54;;;;;;;0.80;0.30;;;;;;;17.70;47.34;99720.41;5117534;28;20043;-76
2020/12/30 05:53:21;;;;;;;0.88;0.43;;;;;;;17.71;47.30;99720.38;5112183;28;20012;-76
2020/12/30 05:55:49;;;;;;;1.85;0.30;;;;;;;17.77;47.17;99733.34;5108652;28;20032;-76
2020/12/30 05:58:16;;;;;;;1.65;0.43;;;;;;;17.73;47.47;99739.50;5095531;28;20028;-76
2020/12/30 06:00:42;;;;;;;0.75;0.30;;;;;;;17.68;47.33;99730.03;5113038;28;20027;-76
2020/12/30 06:03:08;;;;;;;0.43;0.30;;;;;;;17.63;47.64;99729.22;5106218;28;20039;-76
2020/12/30 06:05:33;;;;;;;0.43;0.20;;;;;;;17.57;47.34;99729.34;5098359;28;20024;-76
2020/12/30 06:07:59;;;;;;;0.60;0.40;;;;;;;17.54;47.61;99734.59;5098372;28;20028;-77
2020/12/30 06:10:27;;;;;;;0.30;0.30;;;;;;;17.52;48.16;99733.81;5089381;28;20386;-76
2020/12/30 06:13:01;;;;;;;0.43;0.30;;;;;;;17.46;48.13;99726.94;5098494;28;20035;-69
2020/12/30 06:15:28;;;;;;;0.82;0.73;;;;;;;17.46;48.09;99733.00;5089896;28;20020;-69
2020/12/30 06:18:02;;;;;;;0.50;0.30;;;;;;;17.44;48.02;99737.41;5116404;28;20351;-69
2020/12/30 06:20:33;;;;;;;0.70;0.40;;;;;;;17.40;48.07;99733.09;5116345;28;20169;-69
2020/12/30 06:23:15;;;;;;;0.70;0.30;;;;;;;17.43;48.31;99746.13;5108150;28;20494;-69
2020/12/30 06:25:43;;;;;;;1.63;0.40;;;;;;;17.39;48.14;99747.09;5110006;28;20481;-76
2020/12/30 06:28:13;;;;;;;0.88;0.32;;;;;;;17.39;48.14;99741.00;5080225;28;20027;-76
2020/12/30 06:30:41;;;;;;;0.17;0.17;;;;;;;17.34;47.81;99735.84;5091573;28;20024;-76
2020/12/30 06:33:08;;;;;;;0.73;0.50;;;;;;;17.36;48.40;99746.28;5094702;28;20032;-76
2020/12/30 06:35:35;;;;;;;0.10;0.10;;;;;;;17.33;48.01;99752.41;5115953;28;20039;-69
2020/12/30 06:38:25;;;;;;;0.75;0.32;;;;;;;17.33;47.88;99752.41;5114514;28;20035;-69
2020/12/30 06:40:57;;;;;;;0.30;0.28;;;;;;;17.33;48.30;99759.38;5114099;28;20027;-76
2020/12/30 06:43:39;;;;;;;0.35;0.25;;;;;;;17.30;48.03;99764.66;5089826;28;20054;-69
2020/12/30 06:46:05;;;;;;;0.30;0.20;;;;;;;17.29;48.23;99758.56;5116923;28;20027;-69
2020/12/30 06:48:54;;;;;;;0.47;0.30;;;;;;;17.29;48.01;99762.94;5097574;28;20039;-76
2020/12/30 06:51:20;;;;;;;1.10;0.40;;;;;;;17.26;48.01;99769.09;5107092;28;20032;-76
2020/12/30 06:53:59;;;;;;;0.45;0.40;;;;;;;17.24;48.23;99773.50;5078520;28;20149;-75
2020/12/30 06:56:37;;;;;;;0.40;0.35;;;;;;;17.25;48.01;99769.13;5086246;28;20106;-76
2020/12/30 06:59:05;;;;;;;1.00;0.32;;;;;;;17.26;48.32;99766.50;5108941;28;20031;-69
2020/12/30 07:01:53;;;;;;;0.55;0.30;;;;;;;17.24;47.96;99776.09;5110138;28;20111;-69
2020/12/30 07:04:19;;;;;;;0.30;0.25;;;;;;;17.21;47.75;99776.13;5109462;28;20102;-77
2020/12/30 07:06:44;;;;;;;0.93;0.30;;;;;;;17.22;47.95;99777.00;5081248;28;20091;-76
2020/12/30 07:09:12;;;;;;;0.28;0.28;;;;;;;17.20;47.91;99779.63;5096955;28;20023;-76
2020/12/30 07:11:45;;;;;;;0.30;0.30;;;;;;;17.21;48.06;99785.72;5090329;28;20096;-69
2020/12/30 07:14:18;;;;;;;0.80;0.45;;;;;;;17.18;48.32;99785.78;5094776;28;20528;-69
2020/12/30 07:16:47;;;;;;;0.77;0.50;;;;;;;17.19;47.89;99784.88;5113406;28;20481;-69
2020/12/30 07:19:18;;;;;;;0.47;0.40;;;;;;;17.14;48.34;99788.41;5113312;28;20397;-69
2020/12/30 07:21:48;;;;;;;0.30;0.30;;;;;;;17.15;47.75;99797.13;5110487;28;20035;-69
2020/12/30 07:24:19;;;;;;;0.60;0.30;;;;;;;17.14;48.28;99800.63;5112478;28;20099;-76
2020/12/30 07:26:46;;;;;;;0.77;0.40;;;;;;;17.14;47.81;99800.63;5111366;28;20016;-76
2020/12/30 07:29:16;;;;;;;0.55;0.30;;;;;;;17.15;48.20;99807.56;5089414;28;20024;-76
2020/12/30 07:31:41;;;;;;;0.32;0.30;;;;;;;17.12;48.18;99810.25;5079114;28;20081;-76
2020/12/30 07:34:14;;;;;;;0.68;0.40;;;;;;;17.14;48.10;99817.16;5071962;28;20578;-76
2020/12/30 07:36:41;;;;;;;0.47;0.35;;;;;;;17.12;48.01;99821.56;5093241;28;20031;-76
2020/12/30 07:39:07;;;;;;;1.00;0.50;;;;;;;17.12;48.28;99820.72;5105587;28;20039;-76
2020/12/30 07:41:35;;;;;;;0.22;0.22;;;;;;;17.13;48.06;99828.53;5098643;28;20035;-75
2020/12/30 07:44:03;;;;;;;0.20;0.20;;;;;;;17.12;47.73;99826.78;5105728;28;20110;-76
2020/12/30 07:46:29;;;;;;;0.55;0.30;;;;;;;17.11;48.25;99834.66;5104346;28;20032;-78
2020/12/30 07:49:06;;;;;;;0.20;0.20;;;;;;;17.10;47.93;99830.31;5115150;28;20391;-78
2020/12/30 07:51:32;;;;;;;0.52;0.30;;;;;;;17.10;47.84;99840.75;5097029;28;20028;-78
2020/12/30 07:53:57;;;;;;;0.30;0.28;;;;;;;17.09;48.04;99842.50;5094871;28;20031;-78
2020/12/30 07:56:26;;;;;;;0.43;0.40;;;;;;;17.10;48.25;99852.06;5090703;28;20074;-78
2020/12/30 07:58:52;;;;;;;0.63;0.35;;;;;;;17.08;47.80;99845.13;5082641;28;20028;-78
2020/12/30 08:01:18;;;;;;;0.40;0.38;;;;;;;17.07;48.06;99849.50;5103604;28;20061;-78
2020/12/30 08:03:43;;;;;;;0.60;0.25;;;;;;;17.07;47.91;99859.09;5078135;28;20450;-77
2020/12/30 08:06:09;;;;;;;0.43;0.30;;;;;;;17.05;48.32;99858.25;5082252;28;20042;-78
2020/12/30 08:08:41;;;;;;;1.48;0.40;;;;;;;17.06;48.07;99867.81;5108787;28;20030;-77
2020/12/30 08:11:07;;;;;;;0.60;0.40;;;;;;;17.05;48.22;99868.69;5078549;28;20028;-77
2020/12/30 08:13:32;;;;;;;0.65;0.40;;;;;;;17.04;47.93;99861.72;5114647;28;20072;-77
2020/12/30 08:15:57;;;;;;;0.65;0.40;;;;;;;17.10;47.68;99869.50;5083458;28;20401;-77
2020/12/30 08:18:23;;;;;;;0.38;0.35;;;;;;;17.25;48.13;99873.63;5097674;28;20176;-77
2020/12/30 08:20:48;;;;;;;0.70;0.30;;;;;;;17.28;47.73;99871.81;5101483;28;20035;-78
2020/12/30 08:23:17;;;;;;;0.40;0.20;;;;;;;17.29;47.53;99881.38;5079326;28;20027;-77
2020/12/30 08:25:46;;;;;;;0.98;0.65;;;;;;;17.36;47.61;99890.00;5098712;28;20081;-78
2020/12/30 08:28:12;;;;;;;1.50;0.60;;;;;;;17.48;47.39;99897.66;5099727;28;20028;-77
2020/12/30 08:30:38;;;;;;;0.45;0.30;;;;;;;17.48;47.25;99903.75;5121717;28;20024;-78
2020/12/30 08:33:10;;;;;;;0.30;0.30;;;;;;;17.41;47.18;99898.63;5094857;28;20028;-77
2020/12/30 08:36:00;;;;;;;0.53;0.43;;;;;;;17.51;47.26;99915.91;5079607;28;20036;-78
2020/12/30 08:38:27;;;;;;;0.20;0.20;;;;;;;17.60;47.11;99925.34;5115119;28;20377;-78
2020/12/30 08:40:53;;;;;;;0.57;0.50;;;;;;;17.56;47.16;99918.44;5096137;28;20861;-78
2020/12/30 08:43:44;;;;;;;0.32;0.22;;;;;;;17.53;47.19;99918.50;5108323;28;20528;-78
2020/12/30 08:46:22;;;;;;;0.65;0.40;;;;;;;17.63;47.17;99915.75;5113024;28;20027;-78
2020/12/30 08:48:52;;;;;;;0.40;0.40;;;;;;;17.63;47.17;99920.09;5111940;28;20038;-78
2020/12/30 08:51:33;;;;;;;0.63;0.40;;;;;;;17.58;47.18;99921.88;5091178;28;20027;-77
2020/12/30 08:53:59;;;;;;;1.40;0.28;;;;;;;17.64;47.22;99919.22;5094972;28;20081;-78
2020/12/30 08:56:24;;;;;;;0.93;0.57;;;;;;;17.68;47.36;99926.97;5077415;28;20027;-70
2020/12/30 08:58:54;;;;;;;1.75;0.40;;;;;;;17.64;47.31;99933.16;5114043;28;20028;-70
2020/12/30 09:01:24;;;;;;;0.17;0.17;;;;;;;17.61;47.40;99930.56;5092393;28;20435;-70
2020/12/30 09:03:50;;;;;;;0.40;0.30;;;;;;;17.71;47.32;99934.78;5096048;28;20032;-70
2020/12/30 09:06:27;;;;;;;0.20;0.20;;;;;;;17.69;47.07;99930.47;5106327;28;20107;-70
2020/12/30 09:08:53;;;;;;;0.30;0.30;;;;;;;17.64;47.21;99930.56;5091570;28;20114;-71
2020/12/30 09:11:18;;;;;;;0.30;0.30;;;;;;;17.68;47.34;99928.72;5075037;28;20090;-70
2020/12/30 09:13:44;;;;;;;0.43;0.30;;;;;;;17.75;47.36;99936.47;5108507;28;20374;-70
2020/12/30 09:16:10;;;;;;;0.25;0.20;;;;;;;17.70;47.12;99933.06;5105075;28;20069;-70
2020/12/30 09:18:36;;;;;;;0.30;0.30;;;;;;;17.70;47.15;99948.75;5095497;28;20123;-70
2020/12/30 09:21:02;;;;;;;0.28;0.25;;;;;;;17.73;47.31;99937.38;5074591;28;20110;-70
2020/12/30 09:23:28;;;;;;;0.43;0.28;;;;;;;17.71;47.18;99942.63;5110245;28;20020;-70
2020/12/30 09:25:54;;;;;;;0.73;0.30;;;;;;;17.69;47.38;99954.00;5059667;28;20054;-70
2020/12/30 09:28:22;;;;;;;0.43;0.30;;;;;;;17.62;47.58;99954.94;5086410;28;20382;-70
2020/12/30 09:30:49;;;;;;;0.32;0.30;;;;;;;17.57;47.56;99962.84;5103952;28;20027;-70
2020/12/30 09:33:34;;;;;;;0.80;0.40;;;;;;;17.57;47.73;99967.22;5091858;28;20039;-70
2020/12/30 09:36:06;;;;;;;0.73;0.30;;;;;;;17.51;47.79;99960.34;5048148;28;20066;-70
2020/12/30 09:38:31;;;;;;;0.43;0.30;;;;;;;17.51;47.76;99973.41;5040472;28;20043;-70
2020/12/30 09:40:57;;;;;;;0.30;0.20;;;;;;;17.51;47.57;99973.41;5038129;28;20032;-70
2020/12/30 09:43:24;;;;;;;0.32;0.30;;;;;;;17.49;47.74;99967.34;5068870;28;20028;-70
2020/12/30 09:45:57;;;;;;;0.38;0.30;;;;;;;17.47;47.65;99971.72;5071693;28;20024;-70
2020/12/30 09:48:22;;;;;;;0.98;0.38;;;;;;;17.44;47.98;99975.25;5062662;28;20115;-70
2020/12/30 09:50:50;;;;;;;0.68;0.30;;;;;;;17.44;47.71;99969.16;5064738;28;20443;-70
2020/12/30 09:53:15;;;;;;;0.35;0.30;;;;;;;17.44;47.71;99980.47;5046135;28;20398;-70
2020/12/30 09:55:45;;;;;;;0.52;0.40;;;;;;;17.42;48.13;99983.97;5071706;28;20040;-70
2020/12/30 09:58:10;;;;;;;0.40;0.30;;;;;;;17.41;48.05;99983.13;5067070;28;20425;-70
2020/12/30 10:00:36;;;;;;;0.20;0.20;;;;;;;17.39;48.10;99973.59;5070158;28;20046;-77
2020/12/30 10:03:01;;;;;;;0.25;0.25;;;;;;;17.39;47.95;99981.44;5072688;28;20116;-77
2020/12/30 10:05:27;;;;;;;0.90;0.50;;;;;;;17.36;48.14;99968.41;5069470;28;20028;-77
2020/12/30 10:07:52;;;;;;;0.20;0.20;;;;;;;17.36;48.05;99973.63;5069321;28;20075;-77
2020/12/30 10:10:18;;;;;;;0.63;0.30;;;;;;;17.32;47.91;99966.72;5072469;28;20067;-77
2020/12/30 10:12:43;;;;;;;0.73;0.40;;;;;;;17.38;48.04;99977.09;5054555;28;20041;-77
2020/12/30 10:15:11;;;;;;;0.50;0.30;;;;;;;17.33;48.15;99966.69;5071195;28;20064;-77
2020/12/30 10:17:37;;;;;;;0.38;0.35;;;;;;;17.35;47.99;99977.13;5064202;28;20024;-77
2020/12/30 10:20:08;;;;;;;0.20;0.20;;;;;;;17.31;48.05;99980.66;5071864;28;20502;-77
2020/12/30 10:22:34;;;;;;;0.40;0.25;;;;;;;17.33;48.37;99986.72;5061126;28;20021;-77
2020/12/30 10:25:00;;;;;;;0.40;0.40;;;;;;;17.33;48.02;99989.34;5062643;28;20371;-77
2020/12/30 10:27:26;;;;;;;0.30;0.30;;;;;;;17.29;48.32;99978.06;5067239;28;20031;-77
2020/12/30 10:29:51;;;;;;;0.75;0.40;;;;;;;17.31;48.15;99981.53;5073616;28;20060;-77
2020/12/30 10:32:17;;;;;;;0.43;0.28;;;;;;;17.29;48.18;99988.50;5066984;28;20475;-77
2020/12/30 10:34:42;;;;;;;0.30;0.22;;;;;;;17.31;48.08;99985.88;5082928;28;20048;-77
2020/12/30 10:37:08;;;;;;;0.50;0.20;;;;;;;17.30;48.00;99999.84;5107908;28;20405;-77
2020/12/30 10:39:34;;;;;;;0.55;0.32;;;;;;;17.26;48.08;99988.59;5082529;28;20032;-77
2020/12/30 10:42:00;;;;;;;0.30;0.20;;;;;;;17.28;48.20;99986.78;5107362;28;20103;-77
2020/12/30 10:44:26;;;;;;;0.22;0.20;;;;;;;17.28;48.24;99985.91;5074930;28;20028;-70
2020/12/30 10:46:55;;;;;;;0.47;0.30;;;;;;;17.24;48.01;99987.72;5112901;28;20085;-70
2020/12/30 10:49:21;;;;;;;0.35;0.22;;;;;;;17.25;48.13;99985.97;5080876;28;20024;-70
2020/12/30 10:51:49;;;;;;;0.20;0.20;;;;;;;17.28;48.11;99993.75;5087144;28;20500;-70
2020/12/30 10:54:20;;;;;;;0.20;0.20;;;;;;;17.28;48.05;100002.47;5112113;28;20035;-70
2020/12/30 10:56:52;;;;;;;0.52;0.30;;;;;;;17.28;47.91;99998.97;5091308;28;20035;-70
2020/12/30 10:59:18;;;;;;;0.57;0.23;;;;;;;17.30;48.25;100008.53;5090902;28;20374;-70
2020/12/30 11:01:44;;;;;;;0.40;0.40;;;;;;;17.26;48.19;100011.22;5073105;28;20050;-70
2020/12/30 11:04:10;;;;;;;0.45;0.20;;;;;;;17.25;48.22;100004.28;5101570;28;20035;-70
2020/12/30 11:06:38;;;;;;;0.25;0.20;;;;;;;17.25;48.36;100006.88;5104078;28;20478;-70
2020/12/30 11:09:04;;;;;;;0.73;0.47;;;;;;;17.26;48.21;100009.47;5086874;28;20070;-70
2020/12/30 11:11:29;;;;;;;0.38;0.28;;;;;;;17.26;48.28;100009.47;5101926;28;20064;-70
2020/12/30 11:13:55;;;;;;;0.25;0.20;;;;;;;17.25;48.16;100010.38;5114724;28;20122;-70
2020/12/30 11:16:20;;;;;;;0.95;0.25;;;;;;;17.21;48.09;100006.06;5114108;28;20062;-70
2020/12/30 11:18:46;;;;;;;0.30;0.30;;;;;;;17.22;48.21;100013.00;5092477;28;20114;-70
2020/12/30 11:21:11;;;;;;;0.52;0.43;;;;;;;17.18;48.18;99998.25;5057268;28;20031;-70
2020/12/30 11:23:36;;;;;;;0.20;0.20;;;;;;;17.19;48.44;99997.38;5075827;28;21499;-70
2020/12/30 11:26:02;;;;;;;0.50;0.25;;;;;;;17.19;48.37;100010.44;5079819;28;20484;-70
2020/12/30 11:28:27;;;;;;;0.57;0.30;;;;;;;17.18;48.16;100000.88;5079194;28;20031;-70
2020/12/30 11:30:52;;;;;;;0.55;0.38;;;;;;;17.20;48.43;100009.56;5106720;28;20136;-70
2020/12/30 11:33:18;;;;;;;0.43;0.28;;;;;;;17.19;48.21;99999.13;5094506;28;20031;-70
2020/12/30 11:35:46;;;;;;;0.20;0.20;;;;;;;17.18;48.19;100006.09;5059835;28;20059;-70